Time;durP1;ratioP1;P1;durP2;ratioP2;P2;SDS_P1;SDS_P2;PMS_P1;PMS_P2;Temp;Humidity;BMP_temperature;BMP_pressure;BME280_temperature;BME280_humidity;BME280_pressure;Samples;Min_cycle;Max_cycle;Signal;HPM_P1;HPM_P2
2022/06/26 00:00:11;;;;;;;;;;;18.80;99.90;18.90;99289.00;;;;346157;28;83279;-88
2022/06/26 00:00:24;;;;;;;;;;;18.80;99.90;18.90;99284.00;;;;345315;28;96378;-89
2022/06/26 00:00:36;;;;;;;;;;;18.80;99.90;19.00;99292.00;;;;343347;28;82700;-88
2022/06/26 00:00:47;;;;;;;;;;;18.80;99.90;19.00;99290.00;;;;343999;28;94549;-88
2022/06/26 00:01:00;;;;;;;;;;;18.80;99.90;19.00;99295.00;;;;346124;28;83472;-88
2022/06/26 00:01:11;;;;;;;;;;;18.80;99.90;18.90;99291.00;;;;343747;28;103134;-88
2022/06/26 00:01:23;;;;;;;;;;;18.80;99.90;18.90;99292.00;;;;345825;28;83497;-88
2022/06/26 00:01:35;;;;;;;;;;;18.80;99.90;18.90;99290.00;;;;345202;28;95262;-88
2022/06/26 00:01:47;;;;;;;;;;;18.80;99.90;19.00;99285.00;;;;348977;27;83293;-88
2022/06/26 00:01:58;;;;;;;;;;;18.80;99.90;19.10;99290.00;;;;343908;28;96536;-88
2022/06/26 00:02:10;;;;;;;;;;;18.80;99.90;19.10;99288.00;;;;346130;28;82546;-88
2022/06/26 00:02:22;;;;;;;;;;;18.80;99.90;19.00;99292.00;;;;348140;27;95949;-88
2022/06/26 00:02:34;;;;;;;;;;;18.80;99.90;19.00;99300.00;;;;344759;28;83361;-88
2022/06/26 00:02:46;;;;;;;;;;;18.80;99.90;19.00;99290.00;;;;344028;28;93192;-88
2022/06/26 00:02:58;;;;;;;;;;;18.80;99.90;19.00;99295.00;;;;348915;27;83427;-88
2022/06/26 00:03:10;;;;;;;;;;;18.80;99.90;19.00;99289.00;;;;345277;28;96502;-88
2022/06/26 00:03:22;;;;;;;;;;;18.80;99.90;19.00;99298.00;;;;346070;28;82612;-88
2022/06/26 00:03:34;;;;;;;;;;;18.80;99.90;18.90;99298.00;;;;343861;28;95729;-89
2022/06/26 00:03:46;;;;;;;;;;;18.80;99.90;18.90;99294.00;;;;343313;28;82520;-88
2022/06/26 00:03:58;;;;;;;;;;;18.80;99.90;19.00;99306.00;;;;345248;28;96660;-88
2022/06/26 00:04:10;;;;;;;;;;;18.80;99.90;18.90;99306.00;;;;345269;28;83521;-88
2022/06/26 00:04:21;;;;;;;;;;;18.80;99.90;18.90;99298.00;;;;345403;28;95450;-88
2022/06/26 00:04:33;;;;;;;;;;;18.80;99.90;19.00;99310.00;;;;346152;28;83337;-88
2022/06/26 00:04:45;;;;;;;;;;;18.80;99.90;19.10;99298.00;;;;343860;28;97244;-88
2022/06/26 00:04:57;;;;;;;;;;;18.80;99.90;19.10;99297.00;;;;347273;28;84042;-88
2022/06/26 00:05:10;;;;;;;;;;;18.80;99.90;19.20;99295.00;;;;343883;28;97793;-89
2022/06/26 00:05:22;;;;;;;;;;;18.90;99.90;19.20;99298.00;;;;344701;28;83449;-88
2022/06/26 00:05:34;;;;;;;;;;;18.80;99.90;19.20;99293.00;;;;348164;27;95691;-88
2022/06/26 00:05:45;;;;;;;;;;;18.80;99.90;19.20;99305.00;;;;347448;28;83249;-88
2022/06/26 00:05:57;;;;;;;;;;;18.90;99.90;19.20;99311.00;;;;345299;28;96626;-88
2022/06/26 00:06:09;;;;;;;;;;;18.90;99.90;19.30;99308.00;;;;346154;28;83395;-88
2022/06/26 00:06:21;;;;;;;;;;;18.90;99.90;19.20;99316.00;;;;346798;28;93811;-88
2022/06/26 00:06:33;;;;;;;;;;;18.90;99.90;19.00;99316.00;;;;346162;28;82594;-88
2022/06/26 00:06:44;;;;;;;;;;;18.90;99.90;19.10;99310.00;;;;348193;27;93091;-88
2022/06/26 00:06:59;;;;;;;;;;;18.90;99.90;19.00;99312.00;;;;346153;28;83380;-88
2022/06/26 00:07:11;;;;;;;;;;;18.90;99.90;19.00;99319.00;;;;344287;28;94150;-88
2022/06/26 00:07:23;;;;;;;;;;;18.90;99.90;18.80;99305.00;;;;344852;28;83364;-88
2022/06/26 00:07:35;;;;;;;;;;;18.80;99.90;18.80;99309.00;;;;344274;28;96921;-88
2022/06/26 00:07:47;;;;;;;;;;;18.80;99.90;19.00;99318.00;;;;344774;28;82472;-88
2022/06/26 00:07:59;;;;;;;;;;;18.80;99.90;19.10;99320.00;;;;343887;28;96778;-88
2022/06/26 00:08:11;;;;;;;;;;;18.90;99.90;19.00;99319.00;;;;346211;28;83624;-88
2022/06/26 00:08:25;;;;;;;;;;;18.90;99.90;18.90;99320.00;;;;346820;28;92688;-88
2022/06/26 00:08:37;;;;;;;;;;;18.80;99.90;18.90;99319.00;;;;346106;28;83208;-88
2022/06/26 00:08:49;;;;;;;;;;;18.80;99.90;18.90;99323.00;;;;346801;28;94326;-88
2022/06/26 00:09:00;;;;;;;;;;;18.80;99.90;19.00;99317.00;;;;346176;28;83454;-88
2022/06/26 00:09:12;;;;;;;;;;;18.80;99.90;19.00;99323.00;;;;345201;28;97654;-88
2022/06/26 00:09:24;;;;;;;;;;;18.80;99.90;18.90;99319.00;;;;346020;28;83434;-88
2022/06/26 00:09:36;;;;;;;;;;;18.80;99.90;18.90;99326.00;;;;346747;28;96712;-88
2022/06/26 00:09:48;;;;;;;;;;;18.80;99.90;18.80;99319.00;;;;344623;28;83588;-88
2022/06/26 00:10:00;;;;;;;;;;;18.80;99.90;18.70;99322.00;;;;343918;28;94068;-88
2022/06/26 00:10:12;;;;;;;;;;;18.80;99.90;18.60;99321.00;;;;346216;28;82311;-88
2022/06/26 00:10:23;;;;;;;;;;;18.80;99.90;18.70;99318.00;;;;348209;27;94430;-88
2022/06/26 00:10:35;;;;;;;;;;;18.70;99.90;18.70;99325.00;;;;347453;28;82374;-88
2022/06/26 00:10:48;;;;;;;;;;;18.70;99.90;18.70;99325.00;;;;342591;28;95744;-88
2022/06/26 00:10:59;;;;;;;;;;;18.70;99.90;18.60;99318.00;;;;344768;28;83425;-88
2022/06/26 00:11:11;;;;;;;;;;;18.70;99.90;18.60;99327.00;;;;345314;28;96577;-88
2022/06/26 00:11:23;;;;;;;;;;;18.70;99.90;18.60;99317.00;;;;346235;28;83394;-88
2022/06/26 00:11:51;;;;;;;;;;;18.70;99.90;18.80;99325.00;;;;345366;28;96902;-88
2022/06/26 00:12:03;;;;;;;;;;;18.70;99.90;18.80;99320.00;;;;344732;28;82567;-88
2022/06/26 00:12:16;;;;;;;;;;;18.60;99.90;18.70;99327.00;;;;345380;28;97372;-88
2022/06/26 00:12:28;;;;;;;;;;;18.60;99.90;18.50;99311.00;;;;346259;28;82464;-88
2022/06/26 00:12:39;;;;;;;;;;;18.60;99.90;18.50;99323.00;;;;346597;28;98221;-88
2022/06/26 00:12:51;;;;;;;;;;;18.60;99.90;18.40;99314.00;;;;345855;28;83378;-88
2022/06/26 00:13:03;;;;;;;;;;;18.60;99.90;18.40;99317.00;;;;346616;28;96366;-88
2022/06/26 00:13:15;;;;;;;;;;;18.50;99.90;18.40;99321.00;;;;346008;28;82349;-89
2022/06/26 00:13:26;;;;;;;;;;;18.50;99.90;18.40;99322.00;;;;345312;28;96596;-88
2022/06/26 00:13:38;;;;;;;;;;;18.50;99.90;18.40;99320.00;;;;344874;28;83372;-88
2022/06/26 00:13:50;;;;;;;;;;;18.50;99.90;18.40;99317.00;;;;343970;28;96314;-87
2022/06/26 00:14:02;;;;;;;;;;;18.50;99.90;18.40;99315.00;;;;345978;28;83453;-88
2022/06/26 00:14:13;;;;;;;;;;;18.50;99.90;18.40;99319.00;;;;347910;27;97278;-88
2022/06/26 00:14:25;;;;;;;;;;;18.40;99.90;18.30;99320.00;;;;346217;28;83311;-88
2022/06/26 00:14:37;;;;;;;;;;;18.40;99.90;18.30;99311.00;;;;346553;28;96802;-88
2022/06/26 00:14:49;;;;;;;;;;;18.40;99.90;18.30;99312.00;;;;346027;28;83323;-88
2022/06/26 00:15:01;;;;;;;;;;;18.40;99.90;18.30;99310.00;;;;346789;28;92675;-88
2022/06/26 00:15:13;;;;;;;;;;;18.40;99.90;18.40;99311.00;;;;348843;27;83421;-87
2022/06/26 00:15:25;;;;;;;;;;;18.40;99.90;18.40;99309.00;;;;345207;28;97673;-88
2022/06/26 00:15:38;;;;;;;;;;;18.40;99.90;18.40;99306.00;;;;345940;28;82511;-88
2022/06/26 00:15:50;;;;;;;;;;;18.40;99.90;18.40;99295.00;;;;348011;27;96447;-88
2022/06/26 00:16:02;;;;;;;;;;;18.30;99.90;18.50;99306.00;;;;347179;28;83418;-87
2022/06/26 00:16:14;;;;;;;;;;;18.40;99.90;18.60;99304.00;;;;346548;28;96662;-88
2022/06/26 00:16:26;;;;;;;;;;;18.40;99.90;18.60;99299.00;;;;346066;28;83287;-88
2022/06/26 00:16:38;;;;;;;;;;;18.40;99.90;18.60;99306.00;;;;346574;28;92708;-88
2022/06/26 00:16:50;;;;;;;;;;;18.40;99.90;18.70;99299.00;;;;347443;27;82547;-88
2022/06/26 00:17:01;;;;;;;;;;;18.40;99.90;18.70;99309.00;;;;348204;27;96276;-88
2022/06/26 00:17:13;;;;;;;;;;;18.40;99.90;18.60;99304.00;;;;346071;28;83116;-88
2022/06/26 00:17:25;;;;;;;;;;;18.40;99.90;18.60;99299.00;;;;345269;28;97391;-88
2022/06/26 00:17:37;;;;;;;;;;;18.40;99.90;18.70;99295.00;;;;345992;28;83441;-88
2022/06/26 00:17:49;;;;;;;;;;;18.40;99.90;18.70;99294.00;;;;345459;28;92792;-88
2022/06/26 00:18:01;;;;;;;;;;;18.50;99.90;18.70;99298.00;;;;347390;28;83479;-88
2022/06/26 00:18:13;;;;;;;;;;;18.50;99.90;18.70;99299.00;;;;344008;28;94193;-88
2022/06/26 00:18:24;;;;;;;;;;;18.50;99.90;18.70;99299.00;;;;347561;28;83367;-88
2022/06/26 00:18:36;;;;;;;;;;;18.50;99.90;18.70;99291.00;;;;345277;28;95504;-88
2022/06/26 00:18:48;;;;;;;;;;;18.50;99.90;18.70;99295.00;;;;347419;28;83361;-88
2022/06/26 00:19:00;;;;;;;;;;;18.50;99.90;18.70;99295.00;;;;346687;28;96370;-88
2022/06/26 00:19:12;;;;;;;;;;;18.50;99.90;18.70;99293.00;;;;346065;28;83391;-88
2022/06/26 00:19:23;;;;;;;;;;;18.50;99.90;18.70;99296.00;;;;346587;28;97096;-88
2022/06/26 00:19:35;;;;;;;;;;;18.50;99.90;18.70;99289.00;;;;344653;28;83452;-88
2022/06/26 00:19:47;;;;;;;;;;;18.50;99.90;18.80;99292.00;;;;343759;28;96688;-88
2022/06/26 00:19:59;;;;;;;;;;;18.50;99.90;18.80;99291.00;;;;347412;28;83241;-88
2022/06/26 00:20:11;;;;;;;;;;;18.50;99.90;18.80;99297.00;;;;346683;28;96680;-88
2022/06/26 00:20:23;;;;;;;;;;;18.50;99.90;18.80;99292.00;;;;346157;28;83406;-87
2022/06/26 00:20:34;;;;;;;;;;;18.50;99.90;18.70;99297.00;;;;345331;28;93998;-88
2022/06/26 00:20:46;;;;;;;;;;;18.50;99.90;18.60;99297.00;;;;344715;28;83253;-88
2022/06/26 00:20:58;;;;;;;;;;;18.50;99.90;18.60;99296.00;;;;346737;28;95964;-88
2022/06/26 00:21:09;;;;;;;;;;;18.50;99.90;18.50;99297.00;;;;347504;28;83316;-88
2022/06/26 00:21:22;;;;;;;;;;;18.50;99.90;18.60;99299.00;;;;346543;28;97474;-88
2022/06/26 00:21:33;;;;;;;;;;;18.50;99.90;18.70;99299.00;;;;344789;28;83405;-88
2022/06/26 00:21:45;;;;;;;;;;;18.50;99.90;18.70;99298.00;;;;343970;28;96557;-88
2022/06/26 00:21:57;;;;;;;;;;;18.50;99.90;18.60;99300.00;;;;346146;28;83450;-88
2022/06/26 00:22:09;;;;;;;;;;;18.50;99.90;18.70;99309.00;;;;346594;28;96422;-88
2022/06/26 00:22:21;;;;;;;;;;;18.50;99.90;18.70;99304.00;;;;346137;28;83377;-88
2022/06/26 00:22:33;;;;;;;;;;;18.50;99.90;18.70;99307.00;;;;346390;28;96105;-87
2022/06/26 00:22:45;;;;;;;;;;;18.50;99.90;18.70;99308.00;;;;347412;28;82509;-88
2022/06/26 00:22:56;;;;;;;;;;;18.50;99.90;18.70;99306.00;;;;345313;28;96500;-88
2022/06/26 00:23:08;;;;;;;;;;;18.50;99.90;18.80;99304.00;;;;344846;28;82450;-88
2022/06/26 00:23:20;;;;;;;;;;;18.60;99.90;18.80;99300.00;;;;342423;28;97409;-88
2022/06/26 00:23:32;;;;;;;;;;;18.60;99.90;18.80;99296.00;;;;346128;28;82420;-88
2022/06/26 00:23:44;;;;;;;;;;;18.60;99.90;18.80;99294.00;;;;343908;28;96284;-88
2022/06/26 00:23:55;;;;;;;;;;;18.60;99.90;18.80;99294.00;;;;344724;28;83472;-88
2022/06/26 00:24:07;;;;;;;;;;;18.60;99.90;18.80;99298.00;;;;343922;28;97556;-88
2022/06/26 00:24:19;;;;;;;;;;;18.60;99.90;18.80;99298.00;;;;345920;28;83418;-88
2022/06/26 00:24:32;;;;;;;;;;;18.60;99.90;18.70;99298.00;;;;345348;28;96943;-88
2022/06/26 00:24:45;;;;;;;;;;;18.60;99.90;18.80;99295.00;;;;337786;28;83512;-88
2022/06/26 00:24:57;;;;;;;;;;;18.60;99.90;18.70;99295.00;;;;337113;28;92968;-88
2022/06/26 00:25:09;;;;;;;;;;;18.60;99.90;18.80;99289.00;;;;339119;28;82593;-88
2022/06/26 00:25:20;;;;;;;;;;;18.60;99.90;18.80;99293.00;;;;337251;28;97652;-88
2022/06/26 00:25:32;;;;;;;;;;;18.60;99.90;18.80;99298.00;;;;339075;28;83358;-88
2022/06/26 00:25:44;;;;;;;;;;;18.60;99.90;18.80;99300.00;;;;338157;28;96322;-88
2022/06/26 00:25:55;;;;;;;;;;;18.60;99.90;18.80;99289.00;;;;337741;28;83304;-88
2022/06/26 00:26:07;;;;;;;;;;;18.60;99.90;18.80;99292.00;;;;338474;28;96549;-88
2022/06/26 00:26:19;;;;;;;;;;;18.60;99.90;18.80;99288.00;;;;340502;28;83305;-88
2022/06/26 00:26:31;;;;;;;;;;;18.60;99.90;18.80;99288.00;;;;337044;28;96432;-88
2022/06/26 00:26:42;;;;;;;;;;;18.60;99.90;18.80;99294.00;;;;338971;28;83556;-87
2022/06/26 00:26:54;;;;;;;;;;;18.60;99.90;18.90;99286.00;;;;339700;28;95925;-88
2022/06/26 00:27:06;;;;;;;;;;;18.60;99.90;18.80;99277.00;;;;339120;28;82373;-88
2022/06/26 00:27:19;;;;;;;;;;;18.60;99.90;18.90;99291.00;;;;337019;28;95085;-88
2022/06/26 00:27:31;;;;;;;;;;;18.60;99.90;18.90;99289.00;;;;339116;28;83399;-88
2022/06/26 00:27:45;;;;;;;;;;;18.60;99.90;18.90;99289.00;;;;336987;28;96371;-88
2022/06/26 00:27:57;;;;;;;;;;;18.60;99.90;18.80;99281.00;;;;337736;28;83661;-88
2022/06/26 00:28:09;;;;;;;;;;;18.60;99.90;18.80;99285.00;;;;336317;28;97689;-88
2022/06/26 00:28:21;;;;;;;;;;;18.60;99.90;18.80;99289.00;;;;338246;28;82641;-88
2022/06/26 00:28:32;;;;;;;;;;;18.60;99.90;18.90;99283.00;;;;336922;28;96535;-88
2022/06/26 00:28:44;;;;;;;;;;;18.60;99.90;18.90;99285.00;;;;339090;28;83466;-88
2022/06/26 00:28:56;;;;;;;;;;;18.70;99.90;18.90;99287.00;;;;338447;28;93051;-88
2022/06/26 00:29:08;;;;;;;;;;;18.70;99.90;18.90;99288.00;;;;336278;28;82351;-88
2022/06/26 00:29:19;;;;;;;;;;;18.70;99.90;18.90;99287.00;;;;335461;28;98034;-88
2022/06/26 00:29:32;;;;;;;;;;;18.70;99.90;18.80;99285.00;;;;342061;28;83312;-88
2022/06/26 00:29:44;;;;;;;;;;;18.70;99.90;18.80;99286.00;;;;338378;28;96509;-87
2022/06/26 00:29:55;;;;;;;;;;;18.70;99.90;18.80;99280.00;;;;339060;28;83550;-88
2022/06/26 00:30:07;;;;;;;;;;;18.70;99.90;18.80;99282.00;;;;338442;28;93972;-88
2022/06/26 00:30:19;;;;;;;;;;;18.70;99.90;18.70;99287.00;;;;339146;28;83368;-88
2022/06/26 00:30:31;;;;;;;;;;;18.70;99.90;18.70;99287.00;;;;338471;28;93732;-88
2022/06/26 00:30:42;;;;;;;;;;;18.60;99.90;18.80;99286.00;;;;339095;28;83507;-88
2022/06/26 00:30:54;;;;;;;;;;;18.60;99.90;18.80;99284.00;;;;335675;28;96397;-88
2022/06/26 00:31:06;;;;;;;;;;;18.70;99.90;18.80;99282.00;;;;338171;28;83641;-88
2022/06/26 00:31:18;;;;;;;;;;;18.60;99.90;18.80;99285.00;;;;338237;28;96481;-88
2022/06/26 00:31:29;;;;;;;;;;;18.70;99.90;18.70;99288.00;;;;337789;28;83374;-88
2022/06/26 00:31:41;;;;;;;;;;;18.60;99.90;18.70;99288.00;;;;343876;28;96961;-88
2022/06/26 00:31:53;;;;;;;;;;;18.70;99.90;18.80;99275.00;;;;343443;28;83364;-88
2022/06/26 00:32:06;;;;;;;;;;;18.60;99.90;18.90;99285.00;;;;343811;28;96802;-88
2022/06/26 00:32:17;;;;;;;;;;;18.70;99.90;18.90;99276.00;;;;336386;28;83384;-88
2022/06/26 00:32:29;;;;;;;;;;;18.70;99.90;18.90;99274.00;;;;337141;28;95566;-88
2022/06/26 00:32:41;;;;;;;;;;;18.70;99.90;18.90;99281.00;;;;337712;28;83476;-88
2022/06/26 00:32:53;;;;;;;;;;;18.70;99.90;18.80;99283.00;;;;338400;28;95684;-88
2022/06/26 00:33:05;;;;;;;;;;;18.70;99.90;18.80;99275.00;;;;347455;28;83404;-88
2022/06/26 00:33:16;;;;;;;;;;;18.70;99.90;18.80;99278.00;;;;336958;28;97676;-88
2022/06/26 00:33:28;;;;;;;;;;;18.60;99.90;18.90;99276.00;;;;339144;28;83369;-88
2022/06/26 00:33:40;;;;;;;;;;;18.70;99.90;18.90;99279.00;;;;337076;28;96527;-88
2022/06/26 00:33:52;;;;;;;;;;;18.70;99.90;18.90;99276.00;;;;339125;28;83427;-87
2022/06/26 00:34:04;;;;;;;;;;;18.70;99.90;18.90;99272.00;;;;337341;28;94207;-88
2022/06/26 00:34:15;;;;;;;;;;;18.70;99.90;18.90;99283.00;;;;339991;28;82595;-89
2022/06/26 00:34:27;;;;;;;;;;;18.70;99.90;18.80;99272.00;;;;339682;28;96609;-88
2022/06/26 00:34:39;;;;;;;;;;;18.70;99.90;18.90;99268.00;;;;337737;28;82412;-88
2022/06/26 00:34:51;;;;;;;;;;;18.70;99.90;18.90;99277.00;;;;337064;28;95920;-88
2022/06/26 00:35:03;;;;;;;;;;;18.70;99.90;18.90;99275.00;;;;335171;29;82697;-88
2022/06/26 00:35:14;;;;;;;;;;;18.70;99.90;19.00;99274.00;;;;336949;28;96156;-88
2022/06/26 00:35:26;;;;;;;;;;;18.70;99.90;19.00;99271.00;;;;339264;28;82365;-88
2022/06/26 00:35:37;;;;;;;;;;;18.70;99.90;19.10;99283.00;;;;338492;28;94404;-88
2022/06/26 00:35:49;;;;;;;;;;;18.70;99.90;19.10;99270.00;;;;339097;28;83394;-88
2022/06/26 00:36:01;;;;;;;;;;;18.70;99.90;19.10;99276.00;;;;338032;28;97367;-88
2022/06/26 00:36:13;;;;;;;;;;;18.80;99.90;19.00;99270.00;;;;337851;28;83394;-88
2022/06/26 00:36:25;;;;;;;;;;;18.80;99.90;19.00;99271.00;;;;335737;28;96308;-88
2022/06/26 00:36:36;;;;;;;;;;;18.80;99.90;19.10;99275.00;;;;339085;28;82664;-88
2022/06/26 00:36:48;;;;;;;;;;;18.80;99.90;19.10;99274.00;;;;337014;28;96399;-88
2022/06/26 00:37:00;;;;;;;;;;;18.80;99.90;19.10;99276.00;;;;336484;28;83249;-88
2022/06/26 00:37:12;;;;;;;;;;;18.80;99.90;19.10;99270.00;;;;340226;28;96946;-88
2022/06/26 00:37:23;;;;;;;;;;;18.80;99.90;19.10;99271.00;;;;337870;28;83500;-88
2022/06/26 00:37:35;;;;;;;;;;;18.80;99.90;19.10;99276.00;;;;338359;28;96774;-88
2022/06/26 00:37:48;;;;;;;;;;;18.80;99.90;19.00;99277.00;;;;337717;28;83422;-86
2022/06/26 00:38:00;;;;;;;;;;;18.80;99.90;18.90;99274.00;;;;339526;28;96379;-88
2022/06/26 00:38:11;;;;;;;;;;;18.80;99.90;18.90;99272.00;;;;336689;28;82352;-88
2022/06/26 00:38:23;;;;;;;;;;;18.80;99.90;19.00;99274.00;;;;335772;28;93888;-88
2022/06/26 00:38:35;;;;;;;;;;;18.80;99.90;19.10;99272.00;;;;339083;28;83265;-88
2022/06/26 00:38:47;;;;;;;;;;;18.80;99.90;19.10;99278.00;;;;335727;28;97309;-88
2022/06/26 00:38:58;;;;;;;;;;;18.80;99.90;19.10;99270.00;;;;338946;28;83436;-87
2022/06/26 00:39:10;;;;;;;;;;;18.80;99.90;19.10;99284.00;;;;338251;28;97393;-88
2022/06/26 00:39:22;;;;;;;;;;;18.90;99.90;19.10;99272.00;;;;336513;28;83200;-88
2022/06/26 00:39:34;;;;;;;;;;;18.90;99.90;19.10;99273.00;;;;337077;28;97264;-88
2022/06/26 00:39:45;;;;;;;;;;;18.80;99.90;19.10;99278.00;;;;337841;28;83298;-88
2022/06/26 00:39:57;;;;;;;;;;;18.90;99.90;19.00;99283.00;;;;335716;28;96123;-88
2022/06/26 00:40:09;;;;;;;;;;;18.90;99.90;19.00;99282.00;;;;340087;28;83588;-88
2022/06/26 00:40:21;;;;;;;;;;;18.90;99.90;19.10;99283.00;;;;337034;28;97270;-88
2022/06/26 00:40:33;;;;;;;;;;;18.90;99.90;19.10;99276.00;;;;340470;28;83236;-88
2022/06/26 00:40:45;;;;;;;;;;;18.90;99.90;19.10;99278.00;;;;337038;28;96563;-88
2022/06/26 00:40:56;;;;;;;;;;;18.90;99.90;19.10;99275.00;;;;337777;28;82463;-88
2022/06/26 00:41:08;;;;;;;;;;;18.90;99.90;19.10;99278.00;;;;336990;28;97540;-88
2022/06/26 00:41:20;;;;;;;;;;;18.90;99.90;19.10;99275.00;;;;335056;29;82491;-88
2022/06/26 00:41:32;;;;;;;;;;;18.90;99.90;19.20;99272.00;;;;337036;28;96780;-88
2022/06/26 00:41:43;;;;;;;;;;;18.90;99.90;19.10;99281.00;;;;336508;28;83330;-88
2022/06/26 00:41:55;;;;;;;;;;;18.90;99.90;19.10;99271.00;;;;334351;29;96000;-88
2022/06/26 00:42:07;;;;;;;;;;;18.90;99.90;19.10;99268.00;;;;336526;28;83478;-88
2022/06/26 00:42:19;;;;;;;;;;;18.90;99.90;19.10;99275.00;;;;338291;28;96654;-88
2022/06/26 00:42:30;;;;;;;;;;;18.90;99.90;19.10;99268.00;;;;339055;28;83273;-88
2022/06/26 00:42:42;;;;;;;;;;;18.90;99.90;19.10;99269.00;;;;336875;28;93749;-88
2022/06/26 00:42:54;;;;;;;;;;;18.90;99.90;19.00;99273.00;;;;335056;29;82476;-88
2022/06/26 00:43:06;;;;;;;;;;;18.90;99.90;19.00;99269.00;;;;338597;28;96445;-88
2022/06/26 00:43:18;;;;;;;;;;;18.90;99.90;19.10;99263.00;;;;346072;28;83635;-88
2022/06/26 00:43:30;;;;;;;;;;;18.90;99.90;19.10;99277.00;;;;342670;28;93006;-88
2022/06/26 00:43:42;;;;;;;;;;;18.90;99.90;19.10;99277.00;;;;337841;28;83374;-88
2022/06/26 00:43:53;;;;;;;;;;;19.00;99.90;19.10;99271.00;;;;338331;28;96635;-88
2022/06/26 00:44:15;;;;;;;;;;;18.90;99.90;19.10;99268.00;;;;336465;28;83452;-88
2022/06/26 00:44:27;;;;;;;;;;;18.90;99.90;19.00;99263.00;;;;337125;28;94172;-87
2022/06/26 00:44:38;;;;;;;;;;;19.00;99.90;19.10;99266.00;;;;336376;28;83522;-87
2022/06/26 00:44:52;;;;;;;;;;;18.90;99.90;19.10;99270.00;;;;336972;28;94133;-88
2022/06/26 00:45:04;;;;;;;;;;;18.90;99.90;19.10;99270.00;;;;336555;28;83297;-89
2022/06/26 00:45:16;;;;;;;;;;;18.90;99.90;19.10;99275.00;;;;338192;28;97582;-88
2022/06/26 00:45:28;;;;;;;;;;;18.90;99.90;19.00;99273.00;;;;337809;28;83262;-89
2022/06/26 00:45:40;;;;;;;;;;;18.90;99.90;19.00;99274.00;;;;338430;28;96224;-88
2022/06/26 00:45:51;;;;;;;;;;;18.90;99.90;19.00;99272.00;;;;339120;28;83468;-88
2022/06/26 00:46:06;;;;;;;;;;;18.90;99.90;19.10;99276.00;;;;336828;28;94890;-88
2022/06/26 00:46:18;;;;;;;;;;;18.90;99.90;19.10;99279.00;;;;337828;28;83443;-88
2022/06/26 00:46:30;;;;;;;;;;;19.00;99.90;19.10;99275.00;;;;335728;28;97054;-88
2022/06/26 00:46:42;;;;;;;;;;;19.00;99.90;19.10;99277.00;;;;339065;28;82506;-88
2022/06/26 00:46:54;;;;;;;;;;;18.90;99.90;19.10;99279.00;;;;338402;28;93983;-88
2022/06/26 00:47:06;;;;;;;;;;;19.00;99.90;19.10;99274.00;;;;337781;28;83299;-88
2022/06/26 00:47:19;;;;;;;;;;;19.00;99.90;19.10;99274.00;;;;338248;28;96121;-88
2022/06/26 00:47:31;;;;;;;;;;;18.90;99.90;19.10;99270.00;;;;337752;28;83398;-88
2022/06/26 00:47:43;;;;;;;;;;;19.00;99.90;19.00;99281.00;;;;335734;28;96046;-89
2022/06/26 00:47:55;;;;;;;;;;;18.90;99.90;19.10;99276.00;;;;339053;28;83248;-88
2022/06/26 00:48:07;;;;;;;;;;;19.00;99.90;19.00;99269.00;;;;335647;28;95956;-88
2022/06/26 00:48:18;;;;;;;;;;;19.00;99.90;19.10;99268.00;;;;336265;28;83422;-88
2022/06/26 00:48:30;;;;;;;;;;;19.00;99.90;19.10;99275.00;;;;338405;28;95417;-88
2022/06/26 00:48:42;;;;;;;;;;;19.00;99.90;19.00;99278.00;;;;337851;28;82535;-88
2022/06/26 00:48:54;;;;;;;;;;;19.00;99.90;19.00;99275.00;;;;335721;28;96542;-88
2022/06/26 00:49:05;;;;;;;;;;;19.00;99.90;19.00;99273.00;;;;337703;28;83481;-88
2022/06/26 00:49:17;;;;;;;;;;;18.90;99.90;19.00;99273.00;;;;335284;28;98242;-87
2022/06/26 00:49:29;;;;;;;;;;;18.90;99.90;19.10;99282.00;;;;339163;28;82477;-88
2022/06/26 00:49:41;;;;;;;;;;;19.00;99.90;19.10;99267.00;;;;335748;28;95936;-89
2022/06/26 00:49:53;;;;;;;;;;;19.00;99.90;19.10;99276.00;;;;337732;28;83383;-88
2022/06/26 00:50:07;;;;;;;;;;;19.00;99.90;19.00;99263.00;;;;335701;28;95862;-88
2022/06/26 00:50:19;;;;;;;;;;;19.00;99.90;19.00;99261.00;;;;336506;28;83198;-88
2022/06/26 00:50:30;;;;;;;;;;;18.90;99.90;19.00;99268.00;;;;337016;28;96992;-88
2022/06/26 00:50:42;;;;;;;;;;;18.90;99.90;18.90;99273.00;;;;339045;28;82615;-88
2022/06/26 00:50:54;;;;;;;;;;;18.90;99.90;19.00;99271.00;;;;337020;28;96466;-89
2022/06/26 00:51:06;;;;;;;;;;;18.90;99.90;19.00;99278.00;;;;339072;28;83293;-88
2022/06/26 00:51:19;;;;;;;;;;;18.90;99.90;19.00;99278.00;;;;336915;28;96507;-89
2022/06/26 00:51:31;;;;;;;;;;;18.90;99.90;19.00;99280.00;;;;337809;28;83892;-89
2022/06/26 00:51:44;;;;;;;;;;;18.90;99.90;19.00;99279.00;;;;337019;28;96511;-89
2022/06/26 00:51:56;;;;;;;;;;;18.90;99.90;19.00;99273.00;;;;336320;28;83463;-88
2022/06/26 00:52:08;;;;;;;;;;;18.90;99.90;18.90;99272.00;;;;335603;28;92814;-88
2022/06/26 00:52:20;;;;;;;;;;;18.90;99.90;19.00;99276.00;;;;339174;28;83854;-88
2022/06/26 00:52:32;;;;;;;;;;;18.90;99.90;18.90;99268.00;;;;338362;28;95319;-88
2022/06/26 00:52:43;;;;;;;;;;;18.90;99.90;19.00;99275.00;;;;337643;28;83433;-89
2022/06/26 00:52:56;;;;;;;;;;;18.90;99.90;19.00;99275.00;;;;345322;28;96198;-88
2022/06/26 00:53:08;;;;;;;;;;;18.90;99.90;19.00;99272.00;;;;339183;28;83366;-88
2022/06/26 00:53:19;;;;;;;;;;;18.90;99.90;19.00;99275.00;;;;338220;28;97800;-88
2022/06/26 00:53:31;;;;;;;;;;;18.90;99.90;19.00;99273.00;;;;339031;28;83358;-88
2022/06/26 00:53:43;;;;;;;;;;;18.90;99.90;19.00;99274.00;;;;339682;28;96363;-89
2022/06/26 00:53:54;;;;;;;;;;;18.90;99.90;19.10;99272.00;;;;339056;28;83289;-88
2022/06/26 00:54:07;;;;;;;;;;;18.90;99.90;19.00;99277.00;;;;345298;28;95229;-88
2022/06/26 00:54:21;;;;;;;;;;;18.90;99.90;19.10;99275.00;;;;344741;28;83526;-88
2022/06/26 00:54:33;;;;;;;;;;;18.90;99.90;19.10;99275.00;;;;336950;28;96512;-88
2022/06/26 00:54:45;;;;;;;;;;;18.90;99.90;19.00;99280.00;;;;337705;28;83862;-88
2022/06/26 00:54:56;;;;;;;;;;;18.90;99.90;19.00;99278.00;;;;338427;28;96433;-88
2022/06/26 00:55:09;;;;;;;;;;;18.90;99.90;19.00;99274.00;;;;339040;28;83513;-88
2022/06/26 00:55:21;;;;;;;;;;;18.90;99.90;19.00;99274.00;;;;338259;28;96643;-88
2022/06/26 00:55:33;;;;;;;;;;;18.90;99.90;19.00;99276.00;;;;339056;28;83415;-88
2022/06/26 00:55:44;;;;;;;;;;;18.90;99.90;19.00;99264.00;;;;339710;28;96052;-89
2022/06/26 00:55:56;;;;;;;;;;;18.90;99.90;18.90;99273.00;;;;339185;28;83339;-88
2022/06/26 00:56:09;;;;;;;;;;;18.90;99.90;18.90;99273.00;;;;337523;28;96305;-89
2022/06/26 00:56:20;;;;;;;;;;;18.90;99.90;18.90;99272.00;;;;336409;28;83502;-89
2022/06/26 00:56:33;;;;;;;;;;;18.80;99.90;18.90;99276.00;;;;338278;28;96002;-89
2022/06/26 00:56:44;;;;;;;;;;;18.90;99.90;18.90;99273.00;;;;336547;28;82271;-88
2022/06/26 00:56:56;;;;;;;;;;;18.90;99.90;19.00;99269.00;;;;337047;28;95333;-87
2022/06/26 00:57:08;;;;;;;;;;;18.80;99.90;19.00;99272.00;;;;339130;28;82458;-89
2022/06/26 00:57:20;;;;;;;;;;;18.80;99.90;19.00;99268.00;;;;335603;28;97459;-88
2022/06/26 00:57:33;;;;;;;;;;;18.90;99.90;18.80;99272.00;;;;339078;28;83385;-88
2022/06/26 00:57:46;;;;;;;;;;;18.80;99.90;18.90;99270.00;;;;337104;28;96922;-88
2022/06/26 00:57:58;;;;;;;;;;;18.80;99.90;18.90;99271.00;;;;341992;28;83464;-88
2022/06/26 00:58:10;;;;;;;;;;;18.80;99.90;18.90;99262.00;;;;336968;28;96294;-88
2022/06/26 00:58:21;;;;;;;;;;;18.80;99.90;18.90;99268.00;;;;337849;28;83390;-88
2022/06/26 00:58:33;;;;;;;;;;;18.80;99.90;18.80;99264.00;;;;336804;28;96462;-88
2022/06/26 00:58:45;;;;;;;;;;;18.80;99.90;18.80;99267.00;;;;343255;28;83428;-87
2022/06/26 00:58:57;;;;;;;;;;;18.80;99.90;18.80;99263.00;;;;343939;28;96112;-88
2022/06/26 00:59:09;;;;;;;;;;;18.80;99.90;18.80;99261.00;;;;337708;28;86443;-88
2022/06/26 00:59:20;;;;;;;;;;;18.80;99.90;18.80;99266.00;;;;335533;28;96940;-88
2022/06/26 00:59:32;;;;;;;;;;;18.80;99.90;18.70;99266.00;;;;336461;28;83245;-88